Time;durP1;ratioP1;P1;durP2;ratioP2;P2;SDS_P1;SDS_P2;PMS_P1;PMS_P2;Temp;Humidity;BMP_temperature;BMP_pressure;BME280_temperature;BME280_humidity;BME280_pressure;Samples;Min_cycle;Max_cycle;Signal;HPM_P1;HPM_P2
2021/07/30 00:00:21;;;;;;;;;;;18.60;84.60;;;;;;4350325;32;43949;-89
2021/07/30 00:02:53;;;;;;;;;;;18.60;84.60;;;;;;4362748;32;44549;-91
2021/07/30 00:05:22;;;;;;;;;;;18.60;84.60;;;;;;4350849;32;44635;-89
2021/07/30 00:07:49;;;;;;;;;;;18.50;84.70;;;;;;4362185;32;43661;-91
2021/07/30 00:10:16;;;;;;;;;;;18.50;84.70;;;;;;4350464;32;43677;-91
2021/07/30 00:12:55;;;;;;;;;;;18.50;84.70;;;;;;4362410;32;44668;-88
2021/07/30 00:15:26;;;;;;;;;;;18.50;84.70;;;;;;4362190;32;44077;-89
2021/07/30 00:18:02;;;;;;;;;;;18.50;84.80;;;;;;4351112;32;44179;-90
2021/07/30 00:20:29;;;;;;;;;;;18.50;84.80;;;;;;4363353;32;43308;-90
2021/07/30 00:22:56;;;;;;;;;;;18.50;84.80;;;;;;4350927;32;20017;-89
2021/07/30 00:25:29;;;;;;;;;;;18.50;84.80;;;;;;4361901;32;44356;-89
2021/07/30 00:28:02;;;;;;;;;;;18.40;84.80;;;;;;4350272;32;45549;-89
2021/07/30 00:30:32;;;;;;;;;;;18.40;84.70;;;;;;4362424;32;45353;-89
2021/07/30 00:33:02;;;;;;;;;;;18.40;84.70;;;;;;4361858;32;44480;-89
2021/07/30 00:35:29;;;;;;;;;;;18.40;84.70;;;;;;4349677;32;44029;-89
2021/07/30 00:37:56;;;;;;;;;;;18.40;84.60;;;;;;4362087;32;44212;-89
2021/07/30 00:40:29;;;;;;;;;;;18.40;84.70;;;;;;4349572;32;44284;-90
2021/07/30 00:42:59;;;;;;;;;;;18.40;84.80;;;;;;4362466;32;45655;-89
2021/07/30 00:45:33;;;;;;;;;;;18.40;84.70;;;;;;4362061;32;44034;-89
2021/07/30 00:48:01;;;;;;;;;;;18.40;84.70;;;;;;4362011;32;44734;-89
2021/07/30 00:50:34;;;;;;;;;;;18.40;84.70;;;;;;4350535;32;31304;-90
2021/07/30 00:53:01;;;;;;;;;;;18.40;84.80;;;;;;4363329;32;20001;-89
2021/07/30 00:55:28;;;;;;;;;;;18.40;84.80;;;;;;4362238;32;45904;-90
2021/07/30 00:57:59;;;;;;;;;;;18.30;84.70;;;;;;4349749;32;44028;-89
2021/07/30 01:00:31;;;;;;;;;;;18.40;84.70;;;;;;4362420;32;45948;-89
2021/07/30 01:03:02;;;;;;;;;;;18.40;84.80;;;;;;4349174;32;44203;-89
2021/07/30 01:05:33;;;;;;;;;;;18.30;84.70;;;;;;4361621;32;42542;-90
2021/07/30 01:08:01;;;;;;;;;;;18.30;84.70;;;;;;4362500;32;44086;-89
2021/07/30 01:10:29;;;;;;;;;;;18.30;84.80;;;;;;4360597;32;45350;-89
2021/07/30 01:12:59;;;;;;;;;;;18.30;84.60;;;;;;4349752;32;43478;-89
2021/07/30 01:15:29;;;;;;;;;;;18.30;84.60;;;;;;4361606;32;44141;-87
2021/07/30 01:17:56;;;;;;;;;;;18.30;84.70;;;;;;4361370;32;44065;-90
2021/07/30 01:20:26;;;;;;;;;;;18.20;84.70;;;;;;4361816;32;42186;-89
2021/07/30 01:22:53;;;;;;;;;;;18.20;84.70;;;;;;4361532;32;44444;-88
2021/07/30 01:25:25;;;;;;;;;;;18.20;84.90;;;;;;4349889;32;20001;-88
2021/07/30 01:27:52;;;;;;;;;;;18.20;84.90;;;;;;4361233;32;43823;-89
2021/07/30 01:30:28;;;;;;;;;;;18.20;84.90;;;;;;4349625;32;44394;-89
2021/07/30 01:32:59;;;;;;;;;;;18.20;85.10;;;;;;4361438;32;44323;-88
2021/07/30 01:35:32;;;;;;;;;;;18.20;85.00;;;;;;4348959;32;44001;-89
2021/07/30 01:38:02;;;;;;;;;;;18.20;85.10;;;;;;4361206;32;45372;-88
2021/07/30 01:40:35;;;;;;;;;;;18.20;85.10;;;;;;4348410;32;45055;-89
2021/07/30 01:43:05;;;;;;;;;;;18.20;85.20;;;;;;4361531;32;43588;-90
2021/07/30 01:45:35;;;;;;;;;;;18.10;85.20;;;;;;4349235;32;44048;-90
2021/07/30 01:48:05;;;;;;;;;;;18.10;85.20;;;;;;4361646;32;45130;-90
2021/07/30 01:50:38;;;;;;;;;;;18.10;85.30;;;;;;4349625;32;43168;-91
2021/07/30 01:53:09;;;;;;;;;;;18.10;85.40;;;;;;4361599;32;43728;-90
2021/07/30 01:55:42;;;;;;;;;;;18.10;85.40;;;;;;4362588;32;20075;-90
2021/07/30 01:58:16;;;;;;;;;;;18.10;85.50;;;;;;4361921;32;44808;-89
2021/07/30 02:00:46;;;;;;;;;;;18.10;85.60;;;;;;4362193;32;44238;-89
2021/07/30 02:03:16;;;;;;;;;;;18.10;85.60;;;;;;4348444;32;44439;-89
2021/07/30 02:05:46;;;;;;;;;;;18.10;85.60;;;;;;4349277;32;45525;-88
2021/07/30 02:08:20;;;;;;;;;;;18.00;85.50;;;;;;4360984;32;44145;-90
2021/07/30 02:10:53;;;;;;;;;;;18.10;85.60;;;;;;4348402;32;44419;-89
2021/07/30 02:16:12;;;;;;;;;;;18.00;85.60;;;;;;4361887;32;43460;-89
2021/07/30 02:18:42;;;;;;;;;;;18.00;85.80;;;;;;4361180;32;44351;-90
2021/07/30 02:21:09;;;;;;;;;;;18.00;85.80;;;;;;4348453;32;45662;-89
2021/07/30 02:23:44;;;;;;;;;;;18.00;85.80;;;;;;4361868;32;44163;-89
2021/07/30 02:26:17;;;;;;;;;;;17.90;85.80;;;;;;4361666;32;20365;-90
2021/07/30 02:28:44;;;;;;;;;;;17.90;85.90;;;;;;4348541;32;44230;-90
2021/07/30 02:31:15;;;;;;;;;;;17.90;85.80;;;;;;4360363;32;45710;-89
2021/07/30 02:33:43;;;;;;;;;;;17.90;86.00;;;;;;4348424;32;44604;-89
2021/07/30 02:36:12;;;;;;;;;;;17.90;86.00;;;;;;4360739;32;45724;-89
2021/07/30 02:38:42;;;;;;;;;;;17.90;86.00;;;;;;4348026;32;44195;-90
2021/07/30 02:41:10;;;;;;;;;;;17.80;85.80;;;;;;4360012;32;44487;-89
2021/07/30 02:43:37;;;;;;;;;;;17.80;86.00;;;;;;4360472;32;44507;-90
2021/07/30 02:46:10;;;;;;;;;;;17.80;86.10;;;;;;4348231;32;45354;-89
2021/07/30 02:48:37;;;;;;;;;;;17.70;86.20;;;;;;4360923;32;43288;-90
2021/07/30 02:51:10;;;;;;;;;;;17.70;86.30;;;;;;4348754;32;45473;-89
2021/07/30 02:53:39;;;;;;;;;;;17.70;86.40;;;;;;4360647;32;43438;-89
2021/07/30 02:56:06;;;;;;;;;;;17.70;86.50;;;;;;4348063;32;43941;-89
2021/07/30 02:58:36;;;;;;;;;;;17.60;86.50;;;;;;4360135;32;44561;-89
2021/07/30 03:01:08;;;;;;;;;;;17.60;86.40;;;;;;4359951;32;44920;-89
2021/07/30 03:03:41;;;;;;;;;;;17.60;86.50;;;;;;4348092;32;44568;-90
2021/07/30 03:06:11;;;;;;;;;;;17.60;86.60;;;;;;4360413;32;45853;-89
2021/07/30 03:08:44;;;;;;;;;;;17.60;86.50;;;;;;4348059;32;45693;-89
2021/07/30 03:11:12;;;;;;;;;;;17.60;86.40;;;;;;4359888;32;42662;-89
2021/07/30 03:13:41;;;;;;;;;;;17.60;86.30;;;;;;4348163;32;45424;-90
2021/07/30 03:16:11;;;;;;;;;;;17.60;86.30;;;;;;4360070;32;44848;-89
2021/07/30 03:18:49;;;;;;;;;;;17.60;86.40;;;;;;4360032;32;42739;-90
2021/07/30 03:21:19;;;;;;;;;;;17.60;86.40;;;;;;4347602;32;42521;-91
2021/07/30 03:23:46;;;;;;;;;;;17.50;86.40;;;;;;4360663;32;44468;-89
2021/07/30 03:26:14;;;;;;;;;;;17.50;86.60;;;;;;4347561;32;43154;-91
2021/07/30 03:28:41;;;;;;;;;;;17.50;86.60;;;;;;4362610;32;20043;-90
2021/07/30 03:31:09;;;;;;;;;;;17.40;86.80;;;;;;4347672;32;45495;-90
2021/07/30 03:33:39;;;;;;;;;;;17.40;86.80;;;;;;4359827;32;44512;-91
2021/07/30 03:36:13;;;;;;;;;;;17.40;86.80;;;;;;4360266;32;43470;-91
2021/07/30 03:38:40;;;;;;;;;;;17.40;86.90;;;;;;4348220;32;43478;-91
2021/07/30 03:41:16;;;;;;;;;;;17.40;87.00;;;;;;4360269;32;44114;-93
2021/07/30 03:43:46;;;;;;;;;;;17.40;86.90;;;;;;4348575;32;44199;-90
2021/07/30 03:46:14;;;;;;;;;;;17.40;87.00;;;;;;4347780;33;45865;-86
2021/07/30 03:48:43;;;;;;;;;;;17.30;86.90;;;;;;4348223;33;45619;-92
2021/07/30 03:51:19;;;;;;;;;;;17.30;87.10;;;;;;4360596;33;45928;-92
2021/07/30 03:53:47;;;;;;;;;;;17.30;87.20;;;;;;4360494;33;44067;-92
2021/07/30 03:56:17;;;;;;;;;;;17.20;87.30;;;;;;4348337;33;44310;-92
2021/07/30 03:58:49;;;;;;;;;;;17.20;87.30;;;;;;4361057;33;20043;-92
2021/07/30 04:01:21;;;;;;;;;;;17.20;87.40;;;;;;4348045;33;45351;-90
2021/07/30 04:03:50;;;;;;;;;;;17.10;87.40;;;;;;4360572;33;43890;-93
2021/07/30 04:06:22;;;;;;;;;;;17.10;87.40;;;;;;4348371;33;45572;-92
2021/07/30 04:08:52;;;;;;;;;;;17.10;87.60;;;;;;4362609;33;20011;-92
2021/07/30 04:11:22;;;;;;;;;;;17.10;87.80;;;;;;4360366;33;43631;-92
2021/07/30 04:13:51;;;;;;;;;;;17.00;87.70;;;;;;4348275;33;44482;-88
2021/07/30 04:16:18;;;;;;;;;;;17.00;87.70;;;;;;4361283;33;44490;-93
2021/07/30 04:18:51;;;;;;;;;;;17.00;87.70;;;;;;4360425;33;45107;-93
2021/07/30 04:21:23;;;;;;;;;;;17.00;87.70;;;;;;4348923;33;44556;-89
2021/07/30 04:23:53;;;;;;;;;;;17.00;87.80;;;;;;4360459;33;44134;-90
2021/07/30 04:26:21;;;;;;;;;;;16.90;87.80;;;;;;4347576;33;45761;-92
2021/07/30 04:28:50;;;;;;;;;;;16.90;87.90;;;;;;4360919;32;20005;-92
2021/07/30 04:31:18;;;;;;;;;;;16.90;87.90;;;;;;4347834;33;44770;-90
2021/07/30 04:33:48;;;;;;;;;;;16.90;88.00;;;;;;4359973;33;44494;-89
2021/07/30 04:36:15;;;;;;;;;;;16.90;88.20;;;;;;4347432;33;43298;-90
2021/07/30 04:38:43;;;;;;;;;;;16.80;88.20;;;;;;4360098;33;45772;-90
2021/07/30 04:41:16;;;;;;;;;;;16.90;88.20;;;;;;4347916;33;43955;-92
2021/07/30 04:43:44;;;;;;;;;;;16.80;88.20;;;;;;4360363;32;45669;-89
2021/07/30 04:46:15;;;;;;;;;;;16.80;88.30;;;;;;4350618;32;45569;-90
2021/07/30 04:48:45;;;;;;;;;;;16.80;88.40;;;;;;4362595;32;44322;-91
2021/07/30 04:51:21;;;;;;;;;;;16.80;88.50;;;;;;4362223;32;45165;-92
2021/07/30 04:53:57;;;;;;;;;;;16.80;88.40;;;;;;4363930;32;45739;-90
2021/07/30 04:56:40;;;;;;;;;;;16.80;88.40;;;;;;4362812;32;43942;-92
2021/07/30 04:59:08;;;;;;;;;;;16.80;88.40;;;;;;4364467;32;20432;-93
2021/07/30 05:01:42;;;;;;;;;;;16.80;88.40;;;;;;4350010;32;44355;-91
2021/07/30 05:04:10;;;;;;;;;;;16.80;88.50;;;;;;4350417;32;44167;-90
2021/07/30 05:06:38;;;;;;;;;;;16.80;88.40;;;;;;4361648;32;44504;-90
2021/07/30 05:09:05;;;;;;;;;;;16.80;88.60;;;;;;4349509;32;44377;-90
2021/07/30 05:11:35;;;;;;;;;;;16.80;88.50;;;;;;4361964;32;44787;-90
2021/07/30 05:14:02;;;;;;;;;;;16.80;88.50;;;;;;4349882;32;45143;-90
2021/07/30 05:16:34;;;;;;;;;;;16.70;88.50;;;;;;4350429;32;34361;-88
2021/07/30 05:19:01;;;;;;;;;;;16.70;88.60;;;;;;4362173;32;46094;-89
2021/07/30 05:21:32;;;;;;;;;;;16.70;88.60;;;;;;4349997;32;45240;-90
2021/07/30 05:23:59;;;;;;;;;;;16.70;88.60;;;;;;4361494;32;44796;-89
2021/07/30 05:26:29;;;;;;;;;;;16.70;88.60;;;;;;4350340;32;22019;-90
2021/07/30 05:28:58;;;;;;;;;;;16.70;88.70;;;;;;4362839;32;45673;-88
2021/07/30 05:31:25;;;;;;;;;;;16.70;88.70;;;;;;4362208;32;44123;-92
2021/07/30 05:33:52;;;;;;;;;;;16.60;88.70;;;;;;4349265;32;43438;-93
2021/07/30 05:36:25;;;;;;;;;;;16.60;88.80;;;;;;4361310;32;44318;-94
2021/07/30 05:39:00;;;;;;;;;;;16.70;88.90;;;;;;4349864;32;43804;-89
2021/07/30 05:41:35;;;;;;;;;;;16.70;88.90;;;;;;4361835;32;45275;-92
2021/07/30 05:44:13;;;;;;;;;;;16.70;88.90;;;;;;4349952;32;45505;-88
2021/07/30 05:46:49;;;;;;;;;;;16.70;88.90;;;;;;4362048;32;45625;-88
2021/07/30 05:49:22;;;;;;;;;;;16.70;88.90;;;;;;4349366;32;45049;-93
2021/07/30 05:51:55;;;;;;;;;;;16.70;89.60;;;;;;4361916;32;44469;-90
2021/07/30 05:54:22;;;;;;;;;;;16.70;88.90;;;;;;4349020;32;44420;-91
2021/07/30 05:56:59;;;;;;;;;;;16.70;89.00;;;;;;4361886;32;44485;-92
2021/07/30 05:59:33;;;;;;;;;;;16.70;89.00;;;;;;4361715;32;44364;-92
2021/07/30 06:02:05;;;;;;;;;;;16.80;89.10;;;;;;4350185;32;19997;-90
2021/07/30 06:04:38;;;;;;;;;;;16.70;89.00;;;;;;4362519;32;45703;-88
2021/07/30 06:07:13;;;;;;;;;;;16.80;88.90;;;;;;4348839;32;45357;-89
2021/07/30 06:09:43;;;;;;;;;;;16.70;88.90;;;;;;4361740;32;44466;-91
2021/07/30 06:12:21;;;;;;;;;;;16.80;88.90;;;;;;4349862;32;44917;-90
2021/07/30 06:14:54;;;;;;;;;;;16.70;88.80;;;;;;4361341;32;44635;-91
2021/07/30 06:17:33;;;;;;;;;;;16.80;89.00;;;;;;4350037;32;43849;-92
2021/07/30 06:20:04;;;;;;;;;;;16.70;89.00;;;;;;4361776;32;44768;-93
2021/07/30 06:22:36;;;;;;;;;;;16.80;89.00;;;;;;4349297;32;44308;-91
2021/07/30 06:25:15;;;;;;;;;;;16.80;89.00;;;;;;4361257;32;44240;-89
2021/07/30 06:27:47;;;;;;;;;;;16.80;89.00;;;;;;4348972;32;44829;-89
2021/07/30 06:30:24;;;;;;;;;;;16.80;88.90;;;;;;4362299;32;44822;-89
2021/07/30 06:32:57;;;;;;;;;;;16.80;88.80;;;;;;4350188;32;20473;-89
2021/07/30 06:35:32;;;;;;;;;;;16.80;88.90;;;;;;4362136;32;45070;-90
2021/07/30 06:38:05;;;;;;;;;;;16.90;88.90;;;;;;4348535;32;45177;-85
2021/07/30 06:40:43;;;;;;;;;;;16.90;88.90;;;;;;4360723;32;45297;-88
2021/07/30 06:43:13;;;;;;;;;;;16.90;88.90;;;;;;4348953;32;43314;-92
2021/07/30 06:45:50;;;;;;;;;;;16.90;88.80;;;;;;4360368;32;44327;-87
2021/07/30 06:48:26;;;;;;;;;;;16.90;88.80;;;;;;4348245;32;45739;-93
2021/07/30 06:50:59;;;;;;;;;;;17.00;88.90;;;;;;4360300;32;44675;-91
2021/07/30 06:53:37;;;;;;;;;;;17.00;88.80;;;;;;4348405;32;42729;-88
2021/07/30 06:56:14;;;;;;;;;;;17.00;88.80;;;;;;4360492;32;44443;-86
2021/07/30 06:58:48;;;;;;;;;;;17.00;88.80;;;;;;4361603;32;45532;-91
2021/07/30 07:01:21;;;;;;;;;;;17.00;88.60;;;;;;4360247;32;44827;-91
2021/07/30 07:04:04;;;;;;;;;;;17.10;88.70;;;;;;4349277;32;20005;-85
2021/07/30 07:06:38;;;;;;;;;;;17.10;88.60;;;;;;4357415;32;45742;-93
2021/07/30 07:09:13;;;;;;;;;;;17.20;88.60;;;;;;4333009;33;45342;-89
2021/07/30 07:11:41;;;;;;;;;;;17.20;88.50;;;;;;4345444;33;44581;-91
2021/07/30 07:14:13;;;;;;;;;;;17.20;88.40;;;;;;4345777;33;45417;-86
2021/07/30 07:16:44;;;;;;;;;;;17.30;88.60;;;;;;4345332;33;44471;-92
2021/07/30 07:19:14;;;;;;;;;;;17.30;88.60;;;;;;4345227;33;45073;-89
2021/07/30 07:21:50;;;;;;;;;;;17.40;88.50;;;;;;4345306;33;44612;-89
2021/07/30 07:24:23;;;;;;;;;;;17.40;88.40;;;;;;4345504;33;44815;-92
2021/07/30 07:27:03;;;;;;;;;;;17.40;88.40;;;;;;4344934;33;44246;-90
2021/07/30 07:29:35;;;;;;;;;;;17.40;88.40;;;;;;4344964;33;44834;-91
2021/07/30 07:32:05;;;;;;;;;;;17.50;88.30;;;;;;4344675;33;45678;-89
2021/07/30 07:34:33;;;;;;;;;;;17.50;88.40;;;;;;4347223;33;20050;-83
2021/07/30 07:37:03;;;;;;;;;;;17.50;88.40;;;;;;4345102;33;45999;-93
2021/07/30 07:39:31;;;;;;;;;;;17.60;88.30;;;;;;4345815;33;45730;-92
2021/07/30 07:42:00;;;;;;;;;;;17.60;88.50;;;;;;4344232;33;45074;-86
2021/07/30 07:44:36;;;;;;;;;;;17.70;88.40;;;;;;4344623;33;44437;-87
2021/07/30 07:47:04;;;;;;;;;;;17.70;88.10;;;;;;4344949;33;42993;-86
2021/07/30 07:49:31;;;;;;;;;;;17.70;88.00;;;;;;4344352;33;43471;-91
2021/07/30 07:52:04;;;;;;;;;;;17.70;87.90;;;;;;4344944;33;44404;-89
2021/07/30 07:54:59;;;;;;;;;;;17.80;88.10;;;;;;4345788;33;45224;-87
2021/07/30 07:57:29;;;;;;;;;;;17.80;88.00;;;;;;4345470;33;43440;-84
2021/07/30 08:00:01;;;;;;;;;;;17.90;88.40;;;;;;4344248;33;42711;-87
2021/07/30 08:02:28;;;;;;;;;;;17.90;87.70;;;;;;4344815;33;45058;-89
2021/07/30 08:05:02;;;;;;;;;;;17.90;87.60;;;;;;4344396;33;44873;-85
2021/07/30 08:07:29;;;;;;;;;;;17.90;87.40;;;;;;4344584;33;44092;-90
2021/07/30 08:09:56;;;;;;;;;;;18.00;87.50;;;;;;4344520;33;45595;-84
2021/07/30 08:12:26;;;;;;;;;;;18.00;87.50;;;;;;4343765;33;45242;-85
2021/07/30 08:14:53;;;;;;;;;;;18.00;88.20;;;;;;4344266;33;45695;-90
2021/07/30 08:17:21;;;;;;;;;;;18.10;87.50;;;;;;4345176;33;45029;-91
2021/07/30 08:19:50;;;;;;;;;;;18.10;87.40;;;;;;4347715;33;44735;-86
2021/07/30 08:22:18;;;;;;;;;;;18.10;87.50;;;;;;4348044;33;43581;-87
2021/07/30 08:24:45;;;;;;;;;;;18.20;87.70;;;;;;4347632;33;44314;-90
2021/07/30 08:27:15;;;;;;;;;;;18.20;87.40;;;;;;4348405;33;44916;-84
2021/07/30 08:29:45;;;;;;;;;;;18.20;87.60;;;;;;4347165;33;44258;-83
2021/07/30 08:32:12;;;;;;;;;;;18.30;87.60;;;;;;4347251;33;44234;-90
2021/07/30 08:34:40;;;;;;;;;;;18.30;87.40;;;;;;4347461;33;45233;-90
2021/07/30 08:37:10;;;;;;;;;;;18.40;87.40;;;;;;4347777;33;44006;-93
2021/07/30 08:39:37;;;;;;;;;;;18.40;87.40;;;;;;4346806;33;44107;-85
2021/07/30 08:42:07;;;;;;;;;;;18.40;87.50;;;;;;4347002;33;45136;-92
2021/07/30 08:44:34;;;;;;;;;;;18.40;87.30;;;;;;4347012;33;43659;-86
2021/07/30 08:47:02;;;;;;;;;;;18.50;87.30;;;;;;4348538;33;44773;-89
2021/07/30 08:49:33;;;;;;;;;;;18.50;87.40;;;;;;4347340;33;44358;-87
2021/07/30 08:52:06;;;;;;;;;;;18.50;87.50;;;;;;4347941;33;43507;-85
2021/07/30 08:54:34;;;;;;;;;;;18.50;87.40;;;;;;4347711;33;42392;-86
2021/07/30 08:57:01;;;;;;;;;;;18.60;87.50;;;;;;4346386;33;42492;-84
2021/07/30 08:59:28;;;;;;;;;;;18.60;87.50;;;;;;4346545;33;44146;-85
2021/07/30 09:01:56;;;;;;;;;;;18.70;87.20;;;;;;4346223;33;45733;-86
2021/07/30 09:04:27;;;;;;;;;;;18.70;87.40;;;;;;4346805;33;42497;-86
2021/07/30 09:06:55;;;;;;;;;;;18.80;87.40;;;;;;4347062;33;45783;-93
2021/07/30 09:09:23;;;;;;;;;;;18.80;87.20;;;;;;4346346;33;44778;-91
2021/07/30 09:11:54;;;;;;;;;;;18.90;87.30;;;;;;4346302;33;45700;-87
2021/07/30 09:14:31;;;;;;;;;;;18.90;87.10;;;;;;4346965;33;44251;-85
2021/07/30 09:16:59;;;;;;;;;;;18.90;87.10;;;;;;4346686;33;43946;-87
2021/07/30 09:19:26;;;;;;;;;;;19.00;87.10;;;;;;4346519;33;45928;-91
2021/07/30 09:22:04;;;;;;;;;;;19.00;87.00;;;;;;4346422;33;44164;-90
2021/07/30 09:24:54;;;;;;;;;;;19.10;87.20;;;;;;4346204;33;44555;-86
2021/07/30 09:27:21;;;;;;;;;;;19.10;87.00;;;;;;4346308;33;43938;-84
2021/07/30 09:29:48;;;;;;;;;;;19.10;87.00;;;;;;4346568;33;44817;-90
2021/07/30 09:32:16;;;;;;;;;;;19.10;87.00;;;;;;4345934;33;45019;-88
2021/07/30 09:34:48;;;;;;;;;;;19.20;86.70;;;;;;4346075;33;43857;-86
2021/07/30 09:37:18;;;;;;;;;;;19.20;86.80;;;;;;4347688;33;19997;-88
2021/07/30 09:39:50;;;;;;;;;;;19.30;86.50;;;;;;4345863;33;44213;-85
2021/07/30 09:42:20;;;;;;;;;;;19.30;86.50;;;;;;4345968;33;43472;-85
2021/07/30 09:44:51;;;;;;;;;;;19.40;86.50;;;;;;4345925;33;44213;-84
2021/07/30 09:47:24;;;;;;;;;;;19.40;86.50;;;;;;4345526;33;42370;-86
2021/07/30 09:49:55;;;;;;;;;;;19.40;86.50;;;;;;4345766;33;44374;-90
2021/07/30 09:52:22;;;;;;;;;;;19.50;86.60;;;;;;4346777;33;43684;-84
2021/07/30 09:54:57;;;;;;;;;;;19.50;86.30;;;;;;4345263;33;41534;-89
2021/07/30 09:57:28;;;;;;;;;;;19.50;86.30;;;;;;4345450;33;43867;-82
2021/07/30 10:00:03;;;;;;;;;;;19.50;86.30;;;;;;4346403;33;42975;-83
2021/07/30 10:02:33;;;;;;;;;;;19.60;86.20;;;;;;4345233;33;43280;-83
2021/07/30 10:05:05;;;;;;;;;;;19.60;86.00;;;;;;4345600;33;43591;-84
2021/07/30 10:07:43;;;;;;;;;;;19.60;86.20;;;;;;4346112;33;19998;-82
2021/07/30 10:12:52;;;;;;;;;;;19.60;86.20;;;;;;4346429;33;46012;-84
2021/07/30 10:15:20;;;;;;;;;;;19.60;86.10;;;;;;4345558;33;43272;-88
2021/07/30 10:17:57;;;;;;;;;;;19.70;85.90;;;;;;4345364;33;44652;-86
2021/07/30 10:20:27;;;;;;;;;;;19.70;85.80;;;;;;4345554;33;44050;-83
2021/07/30 10:23:00;;;;;;;;;;;19.80;85.60;;;;;;4346282;33;44337;-87
2021/07/30 10:25:29;;;;;;;;;;;19.80;85.60;;;;;;4345311;33;45273;-81
2021/07/30 10:28:03;;;;;;;;;;;19.80;85.60;;;;;;4346444;33;43860;-81
2021/07/30 10:30:50;;;;;;;;;;;19.90;85.70;;;;;;4345077;33;43202;-84
2021/07/30 10:33:37;;;;;;;;;;;19.90;85.20;;;;;;4346329;33;45057;-86
2021/07/30 10:36:09;;;;;;;;;;;19.90;85.40;;;;;;4345092;33;43159;-86
2021/07/30 10:38:39;;;;;;;;;;;19.90;85.30;;;;;;4345803;33;19993;-83
2021/07/30 10:41:09;;;;;;;;;;;20.00;85.40;;;;;;4346308;33;43252;-83
2021/07/30 10:43:54;;;;;;;;;;;20.10;85.40;;;;;;4344659;33;43486;-85
2021/07/30 10:46:22;;;;;;;;;;;20.10;85.20;;;;;;4345915;33;45573;-85
2021/07/30 10:48:55;;;;;;;;;;;20.10;85.20;;;;;;4344524;33;43474;-82
2021/07/30 10:51:28;;;;;;;;;;;20.20;84.80;;;;;;4346138;33;45703;-84
2021/07/30 10:53:59;;;;;;;;;;;20.20;85.00;;;;;;4344679;33;44212;-88
2021/07/30 10:56:29;;;;;;;;;;;20.20;85.10;;;;;;4344623;33;44240;-85
2021/07/30 10:59:00;;;;;;;;;;;20.20;85.30;;;;;;4345175;33;43430;-88
2021/07/30 11:01:27;;;;;;;;;;;20.20;85.20;;;;;;4344333;33;44283;-83
2021/07/30 11:03:58;;;;;;;;;;;20.20;84.90;;;;;;4346253;33;45360;-84
2021/07/30 11:06:30;;;;;;;;;;;20.30;84.60;;;;;;4345685;33;42815;-88
2021/07/30 11:09:12;;;;;;;;;;;20.30;84.80;;;;;;4346604;33;20052;-83
2021/07/30 11:11:42;;;;;;;;;;;20.30;84.80;;;;;;4344700;33;44287;-84
2021/07/30 11:14:15;;;;;;;;;;;20.40;84.70;;;;;;4344312;33;42865;-83
2021/07/30 11:16:48;;;;;;;;;;;20.50;84.20;;;;;;4344338;33;43473;-83
2021/07/30 11:19:41;;;;;;;;;;;20.50;84.10;;;;;;4344778;33;43965;-87
2021/07/30 11:22:12;;;;;;;;;;;20.50;83.40;;;;;;4344508;33;43356;-83
2021/07/30 11:24:43;;;;;;;;;;;20.60;83.00;;;;;;4344731;33;45088;-82
2021/07/30 11:27:14;;;;;;;;;;;20.60;82.80;;;;;;4345554;33;43152;-87
2021/07/30 11:29:42;;;;;;;;;;;20.70;82.60;;;;;;4345575;33;42712;-89
2021/07/30 11:32:12;;;;;;;;;;;20.80;82.60;;;;;;4344503;33;44046;-82
2021/07/30 11:34:40;;;;;;;;;;;20.80;82.60;;;;;;4344527;33;42658;-89
2021/07/30 11:37:09;;;;;;;;;;;20.90;82.60;;;;;;4343880;33;44370;-83
2021/07/30 11:39:43;;;;;;;;;;;21.00;81.60;;;;;;4344887;33;20071;-85
2021/07/30 11:42:37;;;;;;;;;;;21.00;81.80;;;;;;4344078;33;43513;-86
2021/07/30 11:45:08;;;;;;;;;;;21.00;80.80;;;;;;4344430;33;43905;-88
2021/07/30 11:47:39;;;;;;;;;;;20.90;80.40;;;;;;4345280;33;43261;-88
2021/07/30 11:50:14;;;;;;;;;;;20.90;81.10;;;;;;4344461;33;33604;-88
2021/07/30 11:52:44;;;;;;;;;;;20.90;80.60;;;;;;4344220;33;44179;-86
2021/07/30 11:55:21;;;;;;;;;;;20.90;80.40;;;;;;4344975;33;44413;-90
2021/07/30 11:57:53;;;;;;;;;;;20.80;81.30;;;;;;4344348;33;43319;-89
2021/07/30 12:00:30;;;;;;;;;;;20.80;81.60;;;;;;4343749;33;45618;-87
2021/07/30 12:03:19;;;;;;;;;;;20.80;81.50;;;;;;4343731;33;43853;-89
2021/07/30 12:05:53;;;;;;;;;;;20.80;81.90;;;;;;4344096;33;43498;-88
2021/07/30 12:08:26;;;;;;;;;;;20.80;82.00;;;;;;4344268;33;44702;-84
2021/07/30 12:10:54;;;;;;;;;;;20.80;82.00;;;;;;4344334;33;45569;-90
2021/07/30 12:13:26;;;;;;;;;;;20.80;81.60;;;;;;4343823;33;44370;-85
2021/07/30 12:15:53;;;;;;;;;;;20.80;82.40;;;;;;4344157;33;44520;-88
2021/07/30 12:18:26;;;;;;;;;;;20.80;82.00;;;;;;4343796;33;44708;-86
2021/07/30 12:21:04;;;;;;;;;;;20.70;81.40;;;;;;4344093;33;44311;-86
2021/07/30 12:23:34;;;;;;;;;;;20.70;82.40;;;;;;4344404;33;44750;-92
2021/07/30 12:26:22;;;;;;;;;;;20.70;81.20;;;;;;4344495;33;44814;-83
2021/07/30 12:28:52;;;;;;;;;;;20.70;81.60;;;;;;4344543;33;44220;-89
2021/07/30 12:31:21;;;;;;;;;;;20.60;81.70;;;;;;4344143;33;43608;-89
2021/07/30 12:34:11;;;;;;;;;;;20.60;82.10;;;;;;4343693;33;42610;-89
2021/07/30 12:36:42;;;;;;;;;;;20.60;81.40;;;;;;4339566;33;45779;-91
2021/07/30 12:39:10;;;;;;;;;;;20.60;80.50;;;;;;4343822;33;43265;-87
2021/07/30 12:41:37;;;;;;;;;;;20.60;81.20;;;;;;4343633;33;44773;-87
2021/07/30 12:44:14;;;;;;;;;;;20.60;81.20;;;;;;4344128;33;45067;-85
2021/07/30 12:46:51;;;;;;;;;;;20.60;81.40;;;;;;4344151;33;44134;-85
2021/07/30 12:49:31;;;;;;;;;;;20.60;81.40;;;;;;4345029;33;44945;-86
2021/07/30 12:52:16;;;;;;;;;;;20.60;80.90;;;;;;4345186;33;44096;-87
2021/07/30 12:54:47;;;;;;;;;;;20.60;81.00;;;;;;4345076;33;20043;-86
2021/07/30 12:57:20;;;;;;;;;;;20.60;81.00;;;;;;4343750;33;44115;-86
2021/07/30 12:59:47;;;;;;;;;;;20.60;80.40;;;;;;4344054;33;44473;-88
2021/07/30 13:02:15;;;;;;;;;;;20.60;80.40;;;;;;4343567;33;43850;-82
2021/07/30 13:04:43;;;;;;;;;;;20.60;80.20;;;;;;4343512;33;45523;-89
2021/07/30 13:07:16;;;;;;;;;;;20.60;80.10;;;;;;4346168;33;43389;-85
2021/07/30 13:09:50;;;;;;;;;;;20.60;79.90;;;;;;4347658;33;45910;-85
2021/07/30 13:12:31;;;;;;;;;;;20.60;80.00;;;;;;4347538;33;19993;-89
2021/07/30 13:15:03;;;;;;;;;;;20.60;80.20;;;;;;4347533;33;45825;-84
2021/07/30 13:17:36;;;;;;;;;;;20.60;80.50;;;;;;4346554;33;44811;-83
2021/07/30 13:20:04;;;;;;;;;;;20.60;79.70;;;;;;4347191;33;43285;-87
2021/07/30 13:22:41;;;;;;;;;;;20.60;79.80;;;;;;4347439;33;42887;-87
2021/07/30 13:25:10;;;;;;;;;;;20.70;80.60;;;;;;4346186;33;44132;-88
2021/07/30 13:27:37;;;;;;;;;;;20.70;80.70;;;;;;4347327;33;44273;-87
2021/07/30 13:30:05;;;;;;;;;;;20.80;80.60;;;;;;4346419;33;44255;-87
2021/07/30 13:32:32;;;;;;;;;;;20.80;80.50;;;;;;4346038;33;42884;-85
2021/07/30 13:35:05;;;;;;;;;;;20.90;80.20;;;;;;4347017;33;44647;-85
2021/07/30 13:37:32;;;;;;;;;;;20.90;80.00;;;;;;4347589;33;20040;-88
2021/07/30 13:40:03;;;;;;;;;;;21.00;80.30;;;;;;4346296;33;42432;-86
2021/07/30 13:42:31;;;;;;;;;;;21.00;80.10;;;;;;4347011;33;20028;-85
2021/07/30 13:44:58;;;;;;;;;;;21.00;80.10;;;;;;4346145;33;44568;-87
2021/07/30 13:47:26;;;;;;;;;;;21.00;79.80;;;;;;4345559;33;45150;-88
2021/07/30 13:50:01;;;;;;;;;;;21.00;79.60;;;;;;4345983;33;44244;-86
2021/07/30 13:52:31;;;;;;;;;;;21.00;80.10;;;;;;4346181;33;43938;-91
2021/07/30 13:55:01;;;;;;;;;;;21.00;80.00;;;;;;4346218;33;44605;-87
2021/07/30 13:57:34;;;;;;;;;;;20.90;80.20;;;;;;4345906;33;45752;-88
2021/07/30 14:00:04;;;;;;;;;;;20.90;80.10;;;;;;4345698;33;43175;-88
2021/07/30 14:02:34;;;;;;;;;;;20.90;80.30;;;;;;4345189;33;44389;-85
2021/07/30 14:05:09;;;;;;;;;;;20.90;80.40;;;;;;4346849;33;44987;-86
2021/07/30 14:07:42;;;;;;;;;;;20.90;80.70;;;;;;4345615;33;43508;-87
2021/07/30 14:10:21;;;;;;;;;;;20.90;80.80;;;;;;4345767;33;45046;-84
2021/07/30 14:12:54;;;;;;;;;;;20.90;81.00;;;;;;4346414;33;20040;-84
2021/07/30 14:15:21;;;;;;;;;;;20.90;81.00;;;;;;4345656;33;43117;-84
2021/07/30 14:17:54;;;;;;;;;;;20.90;81.00;;;;;;4344679;33;42293;-84
2021/07/30 14:20:21;;;;;;;;;;;20.90;80.90;;;;;;4345643;33;44155;-85
2021/07/30 14:22:52;;;;;;;;;;;20.90;80.80;;;;;;4345827;33;46006;-85
2021/07/30 14:25:19;;;;;;;;;;;21.00;81.00;;;;;;4345390;33;43490;-85
2021/07/30 14:27:46;;;;;;;;;;;20.90;80.90;;;;;;4346060;33;43392;-90
2021/07/30 14:30:22;;;;;;;;;;;21.00;80.70;;;;;;4345813;33;44084;-84
2021/07/30 14:32:49;;;;;;;;;;;21.00;80.90;;;;;;4345513;33;45134;-88
2021/07/30 14:35:22;;;;;;;;;;;20.90;80.70;;;;;;4344689;33;44231;-86
2021/07/30 14:38:03;;;;;;;;;;;20.90;80.80;;;;;;4345273;33;44343;-87
2021/07/30 14:40:31;;;;;;;;;;;20.90;80.80;;;;;;4345197;33;43872;-85
2021/07/30 14:43:04;;;;;;;;;;;20.90;81.00;;;;;;4347590;33;20052;-87
2021/07/30 14:45:35;;;;;;;;;;;20.90;81.00;;;;;;4344673;33;45968;-88